createdAt,value
2022-07-31T00:00:45.637Z,56.19
2022-07-31T00:03:14.764Z,56.07
2022-07-31T00:05:47.212Z,56.17
2022-07-31T00:08:19.671Z,56.28
2022-07-31T00:10:52.086Z,56.64
2022-07-31T00:17:25.790Z,56.88
2022-07-31T00:19:52.787Z,56.77
2022-07-31T00:22:22.861Z,57.08
2022-07-31T00:24:49.796Z,56.78
2022-07-31T00:27:16.731Z,57.14
2022-07-31T00:29:43.617Z,56.99
2022-07-31T00:32:11.631Z,57.30
2022-07-31T00:34:38.442Z,56.92
2022-07-31T00:37:05.647Z,56.87
2022-07-31T00:39:34.223Z,56.97
2022-07-31T00:42:01.315Z,56.72
2022-07-31T00:44:37.621Z,56.53
2022-07-31T00:47:05.728Z,56.83
2022-07-31T00:49:37.826Z,56.81
2022-07-31T00:52:06.016Z,57.31
2022-07-31T00:54:34.555Z,57.51
2022-07-31T00:57:02.136Z,57.82
2022-07-31T00:59:35.682Z,58.13
2022-07-31T01:02:02.667Z,58.38
2022-07-31T01:04:31.288Z,58.63
2022-07-31T01:07:06.839Z,58.61
2022-07-31T01:09:34.006Z,58.75
2022-07-31T01:12:22.698Z,58.84
2022-07-31T01:15:00.484Z,58.73
2022-07-31T01:17:38.425Z,58.73
2022-07-31T01:20:08.042Z,59.03
2022-07-31T01:23:04.080Z,59.33
2022-07-31T01:25:57.056Z,59.32
2022-07-31T01:28:49.371Z,59.29
2022-07-31T01:31:27.273Z,59.29
2022-07-31T01:34:04.572Z,59.54
2022-07-31T01:36:37.344Z,59.18
2022-07-31T01:39:05.206Z,59.14
2022-07-31T01:41:43.287Z,58.91
2022-07-31T01:44:13.773Z,59.30
2022-07-31T01:46:42.092Z,59.17
2022-07-31T01:49:14.435Z,59.69
2022-07-31T01:51:44.433Z,59.73
2022-07-31T01:54:13.162Z,59.92
2022-07-31T01:56:42.381Z,60.22
2022-07-31T01:59:12.368Z,60.23
2022-07-31T02:02:12.387Z,60.27
2022-07-31T02:04:47.571Z,60.15
2022-07-31T02:07:15.839Z,60.36
2022-07-31T02:09:52.538Z,60.67
2022-07-31T02:12:31.784Z,60.75
2022-07-31T02:15:07.945Z,60.67
2022-07-31T02:17:39.388Z,60.95
2022-07-31T02:20:39.575Z,60.84
2022-07-31T02:23:09.742Z,61.01
2022-07-31T02:25:46.135Z,60.85
2022-07-31T02:28:20.484Z,60.51
2022-07-31T02:30:51.173Z,60.64
2022-07-31T02:33:28.501Z,60.92
2022-07-31T02:36:09.880Z,60.66
2022-07-31T02:38:54.914Z,60.41
2022-07-31T02:41:29.135Z,60.73
2022-07-31T02:43:57.970Z,60.92
2022-07-31T02:46:31.313Z,60.55
2022-07-31T02:49:22.548Z,60.64
2022-07-31T02:51:59.765Z,60.73
2022-07-31T02:54:26.845Z,60.57
2022-07-31T02:56:54.331Z,61.04
2022-07-31T02:59:43.602Z,60.79
2022-07-31T03:02:15.196Z,60.95
2022-07-31T03:04:44.526Z,60.88
2022-07-31T03:07:17.743Z,60.88
2022-07-31T03:09:59.475Z,61.11
2022-07-31T03:13:07.514Z,61.25
2022-07-31T03:15:42.531Z,61.44
2022-07-31T03:18:47.175Z,61.67
2022-07-31T03:21:14.422Z,61.55
2022-07-31T03:23:43.033Z,61.50
2022-07-31T03:26:16.857Z,61.47
2022-07-31T03:28:44.172Z,61.78
2022-07-31T03:31:11.192Z,61.73
2022-07-31T03:33:56.188Z,61.79
2022-07-31T03:36:23.625Z,61.88
2022-07-31T03:38:50.857Z,62.19
2022-07-31T03:41:41.976Z,62.32
2022-07-31T03:44:15.340Z,62.33
2022-07-31T03:46:46.014Z,62.43
2022-07-31T03:49:17.611Z,62.24
2022-07-31T03:51:46.958Z,62.46
2022-07-31T03:54:14.058Z,62.72
2022-07-31T03:56:48.612Z,62.70
2022-07-31T03:59:22.149Z,62.89
2022-07-31T04:01:57.477Z,62.68
2022-07-31T04:04:51.797Z,62.44
2022-07-31T04:07:22.449Z,62.22
2022-07-31T04:09:50.228Z,62.10
2022-07-31T04:12:37.986Z,61.94
2022-07-31T04:15:12.615Z,62.00
2022-07-31T04:17:42.440Z,62.11
2022-07-31T04:20:11.768Z,62.29
2022-07-31T04:22:39.485Z,62.02
2022-07-31T04:25:11.564Z,62.28
2022-07-31T04:28:00.637Z,62.01
2022-07-31T04:30:27.600Z,62.30
2022-07-31T04:32:54.716Z,61.92
2022-07-31T04:35:29.132Z,61.79
2022-07-31T04:37:59.162Z,61.70
2022-07-31T04:40:27.648Z,61.19
2022-07-31T04:42:56.005Z,61.38
2022-07-31T04:45:23.393Z,61.33
2022-07-31T04:47:50.286Z,61.35
2022-07-31T04:50:17.381Z,61.45
2022-07-31T04:52:58.272Z,61.75
2022-07-31T04:55:28.326Z,62.12
2022-07-31T04:57:58.571Z,62.45
2022-07-31T05:00:32.124Z,62.08
2022-07-31T05:03:14.472Z,62.04
2022-07-31T05:05:45.471Z,62.27
2022-07-31T05:08:12.670Z,62.02
2022-07-31T05:11:02.638Z,61.59
2022-07-31T05:13:31.914Z,61.49
2022-07-31T05:15:58.923Z,60.97
2022-07-31T05:18:25.946Z,60.47
2022-07-31T05:21:14.281Z,60.20
2022-07-31T05:24:07.453Z,60.14
2022-07-31T05:26:53.021Z,60.26
2022-07-31T05:29:28.307Z,60.00
2022-07-31T05:31:59.622Z,59.88
2022-07-31T05:34:46.227Z,59.44
2022-07-31T05:37:13.052Z,59.22
2022-07-31T05:39:41.024Z,59.14
2022-07-31T05:42:26.896Z,58.76
2022-07-31T05:45:12.864Z,58.31
2022-07-31T05:47:43.332Z,58.16
2022-07-31T05:50:30.522Z,58.01
2022-07-31T05:53:23.004Z,57.51
2022-07-31T05:59:38.439Z,56.61
2022-07-31T06:02:22.171Z,56.03
2022-07-31T06:05:30.223Z,55.51
2022-07-31T06:08:00.581Z,55.08
2022-07-31T06:10:31.382Z,54.66
2022-07-31T06:12:58.209Z,54.07
2022-07-31T06:15:25.461Z,53.44
2022-07-31T06:17:52.248Z,53.32
2022-07-31T06:20:26.007Z,53.14
2022-07-31T06:22:53.102Z,53.20
2022-07-31T06:25:20.378Z,53.04
2022-07-31T06:27:53.741Z,52.46
2022-07-31T06:30:26.504Z,51.77
2022-07-31T06:32:53.259Z,51.16
2022-07-31T06:35:20.020Z,51.82
2022-07-31T06:41:54.459Z,50.94
2022-07-31T06:44:46.359Z,51.14
2022-07-31T06:47:32.114Z,50.76
2022-07-31T06:50:06.001Z,50.40
2022-07-31T06:52:38.846Z,48.71
2022-07-31T06:55:07.381Z,48.11
2022-07-31T06:57:34.783Z,47.90
2022-07-31T07:00:06.883Z,47.66
2022-07-31T07:02:41.996Z,47.27
2022-07-31T07:05:08.855Z,47.13
2022-07-31T07:07:36.746Z,47.03
2022-07-31T07:10:06.067Z,46.68
2022-07-31T07:12:54.217Z,46.94
2022-07-31T07:15:21.511Z,46.62
2022-07-31T07:17:48.223Z,46.83
2022-07-31T07:20:20.291Z,46.22
2022-07-31T07:22:47.027Z,46.09
2022-07-31T07:25:21.822Z,46.22
2022-07-31T07:27:50.931Z,46.62
2022-07-31T07:30:17.769Z,46.25
2022-07-31T07:32:44.667Z,46.41
2022-07-31T07:35:12.622Z,46.69
2022-07-31T07:38:05.644Z,47.03
2022-07-31T07:40:36.817Z,46.90
2022-07-31T07:43:03.852Z,47.13
2022-07-31T07:45:31.817Z,47.20
2022-07-31T07:48:05.954Z,46.82
2022-07-31T07:50:42.823Z,47.24
2022-07-31T07:53:36.963Z,48.08
2022-07-31T07:56:26.870Z,48.28
2022-07-31T07:59:24.323Z,48.61
2022-07-31T08:02:12.417Z,48.55
2022-07-31T08:04:39.258Z,48.11
2022-07-31T08:07:06.316Z,47.99
2022-07-31T08:09:37.565Z,48.41
2022-07-31T08:12:29.340Z,48.18
2022-07-31T08:15:05.702Z,48.40
2022-07-31T08:17:35.377Z,48.49
2022-07-31T08:20:02.153Z,48.63
2022-07-31T08:22:29.070Z,48.41
2022-07-31T08:24:57.039Z,48.35
2022-07-31T08:27:39.335Z,48.54
2022-07-31T08:30:08.193Z,48.59
2022-07-31T08:32:35.045Z,48.19
2022-07-31T08:35:16.120Z,48.30
2022-07-31T08:37:52.179Z,48.15
2022-07-31T08:40:32.404Z,47.85
2022-07-31T08:43:10.580Z,47.60
2022-07-31T08:45:50.059Z,47.17
2022-07-31T08:48:28.661Z,47.31
2022-07-31T08:50:55.520Z,47.34
2022-07-31T08:53:43.361Z,47.25
2022-07-31T08:56:15.372Z,47.18
2022-07-31T08:58:42.288Z,46.66
2022-07-31T09:01:11.851Z,46.33
2022-07-31T09:03:39.122Z,46.82
2022-07-31T09:06:08.810Z,46.77
2022-07-31T09:08:36.711Z,47.26
2022-07-31T09:11:10.529Z,47.25
2022-07-31T09:14:01.728Z,46.91
2022-07-31T09:16:47.517Z,47.03
2022-07-31T09:23:12.989Z,46.97
2022-07-31T09:25:55.221Z,47.38
2022-07-31T09:28:32.680Z,47.24
2022-07-31T09:30:59.656Z,46.89
2022-07-31T09:33:52.697Z,46.63
2022-07-31T09:36:37.925Z,46.39
2022-07-31T09:39:31.013Z,46.18
2022-07-31T09:42:22.921Z,46.56
2022-07-31T09:44:56.222Z,46.44
2022-07-31T09:47:27.513Z,46.15
2022-07-31T09:49:59.354Z,46.51
2022-07-31T09:52:31.202Z,46.11
2022-07-31T09:55:15.006Z,46.18
2022-07-31T09:57:55.544Z,46.35
2022-07-31T10:00:23.837Z,46.05
2022-07-31T10:02:55.783Z,46.24
2022-07-31T10:05:26.734Z,45.76
2022-07-31T10:08:02.667Z,45.20
2022-07-31T10:10:50.943Z,45.31
2022-07-31T10:13:40.704Z,45.17
2022-07-31T10:16:12.747Z,44.84
2022-07-31T10:18:44.527Z,44.96
2022-07-31T10:21:42.711Z,45.22
2022-07-31T10:24:13.131Z,45.17
2022-07-31T10:26:59.743Z,45.31
2022-07-31T10:29:28.021Z,45.00
2022-07-31T10:32:02.483Z,44.91
2022-07-31T10:34:35.109Z,44.40
2022-07-31T10:37:19.458Z,44.02
2022-07-31T10:40:13.494Z,44.33
2022-07-31T10:43:11.930Z,43.87
2022-07-31T10:45:54.093Z,43.94
2022-07-31T10:48:56.407Z,43.37
2022-07-31T10:51:51.858Z,42.91
2022-07-31T10:54:42.685Z,42.85
2022-07-31T10:57:55.864Z,42.37
2022-07-31T11:00:38.006Z,43.34
2022-07-31T11:03:44.301Z,42.87
2022-07-31T11:06:44.734Z,42.85
2022-07-31T11:09:34.916Z,42.68
2022-07-31T11:13:07.621Z,42.71
2022-07-31T11:15:52.733Z,42.27
2022-07-31T11:18:44.502Z,42.12
2022-07-31T11:27:49.556Z,40.78
2022-07-31T11:30:25.745Z,40.99
2022-07-31T11:32:56.094Z,41.13
2022-07-31T11:35:30.930Z,41.67
2022-07-31T11:38:09.264Z,41.00
2022-07-31T11:41:14.951Z,40.04
2022-07-31T11:43:46.417Z,40.11
2022-07-31T11:46:16.534Z,40.45
2022-07-31T11:48:46.265Z,40.54
2022-07-31T11:51:18.669Z,39.97
2022-07-31T11:53:46.055Z,39.95
2022-07-31T11:56:24.528Z,40.07
2022-07-31T11:58:54.532Z,40.33
2022-07-31T12:01:28.197Z,40.28
2022-07-31T12:03:56.674Z,39.65
2022-07-31T12:06:24.025Z,39.62
2022-07-31T12:08:51.978Z,38.88
2022-07-31T12:38:37.696Z,38.07
2022-07-31T12:45:18.085Z,37.68
2022-07-31T12:47:52.004Z,38.16
2022-07-31T12:50:23.903Z,38.13
2022-07-31T12:52:50.871Z,38.42
2022-07-31T12:55:18.043Z,38.16
2022-07-31T12:57:51.379Z,38.55
2022-07-31T13:00:23.804Z,38.61
2022-07-31T13:02:52.237Z,38.36
2022-07-31T13:05:21.682Z,38.03
2022-07-31T13:07:48.869Z,38.04
2022-07-31T13:10:21.654Z,37.71
2022-07-31T13:12:51.908Z,38.36
2022-07-31T13:15:29.796Z,38.49
2022-07-31T13:17:58.372Z,37.95
2022-07-31T13:20:25.634Z,37.77
2022-07-31T13:22:52.449Z,38.37
2022-07-31T13:25:19.499Z,38.92
2022-07-31T13:27:47.634Z,39.16
2022-07-31T13:30:14.549Z,38.87
2022-07-31T13:32:41.941Z,38.92
2022-07-31T13:35:23.573Z,39.04
2022-07-31T13:37:55.141Z,39.34
2022-07-31T13:40:42.055Z,39.37
2022-07-31T13:43:08.976Z,38.68
2022-07-31T13:45:36.224Z,38.17
2022-07-31T13:48:08.624Z,38.75
2022-07-31T13:50:37.551Z,38.50
2022-07-31T13:53:04.916Z,38.42
2022-07-31T13:55:32.116Z,38.42
2022-07-31T13:58:01.151Z,38.63
2022-07-31T14:00:29.308Z,39.12
2022-07-31T14:02:59.064Z,39.75
2022-07-31T14:05:27.670Z,39.85
2022-07-31T14:07:59.329Z,40.41
2022-07-31T14:10:48.378Z,40.01
2022-07-31T14:13:18.079Z,39.16
2022-07-31T14:15:45.482Z,38.57
2022-07-31T14:18:12.378Z,37.88
2022-07-31T14:20:39.296Z,37.82
2022-07-31T14:23:08.960Z,37.16
2022-07-31T14:25:37.347Z,37.00
2022-07-31T14:28:05.505Z,37.09
2022-07-31T14:30:33.099Z,37.50
2022-07-31T14:33:01.964Z,37.82
2022-07-31T14:35:33.654Z,37.75
2022-07-31T14:38:03.986Z,38.25
2022-07-31T14:40:31.299Z,38.65
2022-07-31T14:42:58.421Z,38.66
2022-07-31T14:45:25.458Z,38.69
2022-07-31T14:47:55.252Z,38.78
2022-07-31T14:50:23.441Z,39.12
2022-07-31T14:52:50.480Z,37.75
2022-07-31T14:55:17.961Z,37.41
2022-07-31T14:57:45.302Z,36.93
2022-07-31T15:00:13.429Z,36.02
2022-07-31T15:02:44.385Z,35.09
2022-07-31T15:06:41.705Z,34.78
2022-07-31T15:07:59.203Z,34.89
2022-07-31T15:10:26.023Z,34.55
2022-07-31T15:12:52.723Z,34.66
2022-07-31T15:15:19.567Z,34.53
2022-07-31T15:17:46.356Z,34.50
2022-07-31T15:20:13.844Z,34.33
2022-07-31T15:22:40.634Z,33.99
2022-07-31T15:25:12.650Z,34.05
2022-07-31T15:27:39.464Z,34.56
2022-07-31T15:30:09.704Z,34.60
2022-07-31T15:32:58.979Z,35.41
2022-07-31T15:35:47.444Z,35.90
2022-07-31T15:38:22.775Z,36.48
2022-07-31T15:40:52.613Z,37.22
2022-07-31T15:43:19.862Z,36.47
2022-07-31T15:46:15.939Z,36.64
2022-07-31T15:48:45.147Z,36.55
2022-07-31T15:51:12.822Z,36.82
2022-07-31T15:53:55.291Z,36.78
2022-07-31T15:56:42.997Z,37.76
2022-07-31T15:59:26.553Z,38.00
2022-07-31T16:01:56.205Z,38.15
2022-07-31T16:20:03.585Z,38.73
2022-07-31T16:22:30.339Z,38.68
2022-07-31T16:24:57.022Z,38.72
2022-07-31T16:27:23.816Z,38.51
2022-07-31T16:29:59.500Z,38.27
2022-07-31T16:32:29.853Z,38.73
2022-07-31T16:35:00.509Z,38.06
2022-07-31T16:37:50.503Z,37.56
2022-07-31T16:40:31.083Z,37.91
2022-07-31T16:43:50.020Z,37.38
2022-07-31T16:45:50.874Z,37.57
2022-07-31T16:48:18.059Z,37.21
2022-07-31T16:50:45.892Z,37.35
2022-07-31T16:54:13.316Z,37.03
2022-07-31T16:56:06.700Z,36.86
2022-07-31T16:58:33.498Z,36.55
2022-07-31T17:01:03.022Z,37.66
2022-07-31T17:03:58.490Z,37.16
2022-07-31T17:06:16.614Z,36.78
2022-07-31T17:08:44.077Z,36.17
2022-07-31T17:11:10.770Z,36.71
2022-07-31T17:13:37.532Z,35.01
2022-07-31T17:16:04.711Z,33.45
2022-07-31T17:18:31.567Z,33.77
2022-07-31T17:20:59.823Z,33.22
2022-07-31T17:23:43.424Z,35.22
2022-07-31T17:26:21.380Z,35.43
2022-07-31T17:28:50.714Z,36.18
2022-07-31T17:31:19.083Z,36.52
2022-07-31T17:33:58.745Z,37.16
2022-07-31T17:36:29.114Z,37.21
2022-07-31T17:38:59.429Z,37.07
2022-07-31T17:41:26.389Z,36.90
2022-07-31T17:43:54.621Z,37.05
2022-07-31T17:46:34.315Z,36.83
2022-07-31T17:49:05.268Z,37.44
2022-07-31T17:51:32.019Z,37.56
2022-07-31T17:53:59.638Z,37.17
2022-07-31T17:56:26.960Z,37.68
2022-07-31T17:58:53.998Z,37.53
2022-07-31T18:01:24.367Z,37.52
2022-07-31T18:03:56.481Z,37.52
2022-07-31T18:06:23.485Z,37.62
2022-07-31T18:08:50.388Z,37.33
2022-07-31T18:11:17.628Z,37.41
2022-07-31T18:13:47.939Z,37.63
2022-07-31T18:16:15.525Z,37.73
2022-07-31T18:18:42.239Z,37.85
2022-07-31T18:21:09.116Z,38.37
2022-07-31T18:23:35.987Z,38.44
2022-07-31T18:26:03.946Z,38.76
2022-07-31T18:28:34.280Z,39.37
2022-07-31T18:31:02.028Z,40.19
2022-07-31T19:22:32.667Z,43.73
2022-07-31T19:25:01.852Z,43.33
2022-07-31T19:31:40.172Z,43.82
2022-07-31T19:38:07.301Z,44.34
2022-07-31T19:47:23.201Z,45.10
2022-07-31T20:07:07.545Z,45.87
2022-07-31T20:20:59.558Z,46.43
2022-07-31T20:26:44.833Z,46.61
2022-07-31T21:09:14.181Z,49.83
2022-07-31T22:34:43.097Z,50.28
2022-07-31T23:16:58.807Z,53.51
2022-07-31T23:46:26.891Z,53.75
2022-07-31T23:53:46.861Z,54.48
